createdAt,value
2022-09-25T00:05:45.913Z,100845.00
2022-09-25T00:11:48.258Z,100838.00
2022-09-25T00:17:50.636Z,100845.00
2022-09-25T00:23:53.437Z,100825.00
2022-09-25T00:29:55.784Z,100820.00
2022-09-25T00:36:04.183Z,100820.00
2022-09-25T00:42:06.667Z,100811.00
2022-09-25T00:48:15.095Z,100803.00
2022-09-25T00:54:32.491Z,100806.00
2022-09-25T01:00:35.054Z,100797.00
2022-09-25T01:06:37.400Z,100792.00
2022-09-25T01:12:43.737Z,100795.00
2022-09-25T01:18:52.456Z,100795.00
2022-09-25T01:25:29.346Z,100795.00
2022-09-25T01:31:52.016Z,100791.00
2022-09-25T01:38:00.432Z,100790.00
2022-09-25T01:44:32.432Z,100783.00
2022-09-25T01:50:42.046Z,100784.00
2022-09-25T01:56:57.862Z,100785.00
2022-09-25T02:03:09.752Z,100794.00
2022-09-25T02:09:17.746Z,100795.00
2022-09-25T02:15:43.868Z,100792.00
2022-09-25T02:21:49.415Z,100799.00
2022-09-25T02:27:51.831Z,100797.00
2022-09-25T02:33:54.147Z,100795.00
2022-09-25T02:40:00.827Z,100796.00
2022-09-25T02:46:56.509Z,100797.00
2022-09-25T02:53:27.023Z,100797.00
2022-09-25T02:59:38.369Z,100787.00
2022-09-25T03:05:41.718Z,100788.00
2022-09-25T03:11:44.719Z,100789.00
2022-09-25T03:17:48.476Z,100797.00
2022-09-25T03:23:50.692Z,100799.00
2022-09-25T03:29:53.127Z,100801.00
2022-09-25T03:36:12.501Z,100804.00
2022-09-25T03:42:14.817Z,100804.00
2022-09-25T03:48:18.129Z,100806.00
2022-09-25T03:54:20.612Z,100809.00
2022-09-25T04:00:24.358Z,100813.00
2022-09-25T04:06:27.149Z,100814.00
2022-09-25T04:12:29.783Z,100818.00
2022-09-25T04:18:32.940Z,100819.00
2022-09-25T04:24:50.211Z,100812.00
2022-09-25T04:30:52.576Z,100819.00
2022-09-25T04:36:54.787Z,100818.00
2022-09-25T04:43:01.646Z,100814.00
2022-09-25T04:49:03.874Z,100807.00
2022-09-25T04:55:06.933Z,100809.00
2022-09-25T05:01:10.394Z,100761.00
2022-09-25T05:07:12.664Z,100679.00
2022-09-25T05:13:14.911Z,100671.00
2022-09-25T05:19:17.396Z,100666.00
2022-09-25T05:25:22.433Z,100656.00
2022-09-25T05:31:24.927Z,100651.00
2022-09-25T05:37:27.156Z,100656.00
2022-09-25T05:43:29.624Z,100665.00
2022-09-25T05:49:31.692Z,100667.00
2022-09-25T05:55:33.702Z,100655.00
2022-09-25T06:01:35.818Z,100645.00
2022-09-25T06:07:37.846Z,100638.00
2022-09-25T06:13:39.940Z,100656.00
2022-09-25T06:19:42.027Z,100645.00
2022-09-25T06:25:44.643Z,100660.00
2022-09-25T06:31:46.865Z,100656.00
2022-09-25T06:37:49.004Z,100667.00
2022-09-25T06:43:52.018Z,100676.00
2022-09-25T06:49:54.307Z,100687.00
2022-09-25T06:55:59.859Z,100680.00
2022-09-25T07:02:22.118Z,100696.00
2022-09-25T07:08:24.720Z,100703.00
2022-09-25T07:14:26.894Z,100711.00
2022-09-25T07:20:28.937Z,100715.00
2022-09-25T07:26:34.070Z,100718.00
2022-09-25T07:32:36.334Z,100704.00
2022-09-25T07:38:39.613Z,100710.00
2022-09-25T07:44:46.081Z,100698.00
2022-09-25T07:50:50.427Z,100680.00
2022-09-25T07:56:52.750Z,100668.00
2022-09-25T08:02:59.537Z,100667.00
2022-09-25T08:09:04.575Z,100687.00
2022-09-25T08:15:09.550Z,100660.00
2022-09-25T08:21:14.498Z,100675.00
2022-09-25T08:27:16.640Z,100676.00
2022-09-25T08:33:18.735Z,100667.00
2022-09-25T08:39:20.946Z,100697.00
2022-09-25T08:45:53.129Z,100701.00
2022-09-25T08:52:01.078Z,100681.00
2022-09-25T08:58:03.499Z,100698.00
2022-09-25T09:04:11.390Z,100686.00
2022-09-25T09:10:45.925Z,100703.00
2022-09-25T09:17:03.788Z,100720.00
2022-09-25T09:23:11.058Z,100731.00
2022-09-25T09:29:27.302Z,100730.00
2022-09-25T09:35:57.536Z,100745.00
2022-09-25T09:42:02.681Z,100727.00
2022-09-25T09:48:23.053Z,100741.00
2022-09-25T09:54:36.950Z,100729.00
2022-09-25T10:00:40.415Z,100690.00
2022-09-25T10:07:03.817Z,100708.00
2022-09-25T10:13:42.885Z,100679.00
2022-09-25T10:19:49.587Z,100653.00
2022-09-25T10:25:55.846Z,100599.00
2022-09-25T10:32:02.810Z,100693.00
2022-09-25T10:38:06.797Z,100634.00
2022-09-25T10:44:28.792Z,100595.00
2022-09-25T10:50:31.138Z,100570.00
2022-09-25T10:56:36.319Z,100571.00
2022-09-25T11:02:43.051Z,100570.00
2022-09-25T11:08:46.439Z,100566.00
2022-09-25T11:15:01.882Z,100525.00
2022-09-25T11:21:05.689Z,100527.00
2022-09-25T11:27:20.595Z,100527.00
2022-09-25T11:33:49.432Z,100575.00
2022-09-25T11:40:31.853Z,100599.00
2022-09-25T11:47:02.551Z,100620.00
2022-09-25T11:53:33.916Z,100560.00
2022-09-25T12:00:20.343Z,100605.00
2022-09-25T12:06:39.132Z,100518.00
2022-09-25T12:13:06.776Z,100599.00
2022-09-25T12:19:23.819Z,100588.00
2022-09-25T12:25:42.076Z,100590.00
2022-09-25T12:32:04.879Z,100562.00
2022-09-25T12:38:32.215Z,100570.00
2022-09-25T12:44:47.796Z,100565.00
2022-09-25T12:51:05.545Z,100572.00
2022-09-25T12:57:17.062Z,100567.00
2022-09-25T13:03:33.649Z,100556.00
2022-09-25T13:09:45.259Z,100539.00
2022-09-25T13:15:58.618Z,100524.00
2022-09-25T13:22:32.574Z,100499.00
2022-09-25T13:28:38.688Z,100523.00
2022-09-25T13:34:42.611Z,100510.00
2022-09-25T13:40:50.629Z,100512.00
2022-09-25T13:47:22.440Z,100504.00
2022-09-25T13:53:27.568Z,100499.00
2022-09-25T13:59:37.816Z,100499.00
2022-09-25T14:05:43.204Z,100502.00
2022-09-25T14:11:56.644Z,100499.00
2022-09-25T14:18:01.154Z,100487.00
2022-09-25T14:24:32.798Z,100477.00
2022-09-25T14:30:35.196Z,100475.00
2022-09-25T14:37:29.934Z,100472.00
2022-09-25T14:44:10.151Z,100469.00
2022-09-25T14:50:25.513Z,100463.00
2022-09-25T14:56:34.333Z,100442.00
2022-09-25T15:02:40.014Z,100449.00
2022-09-25T15:08:42.588Z,100432.00
2022-09-25T15:15:16.730Z,100424.00
2022-09-25T15:21:33.867Z,100430.00
2022-09-25T15:27:42.935Z,100435.00
2022-09-25T15:33:46.077Z,100435.00
2022-09-25T15:39:48.438Z,100423.00
2022-09-25T15:46:03.746Z,100424.00
2022-09-25T15:52:22.717Z,100416.00
2022-09-25T15:58:24.905Z,100411.00
2022-09-25T16:04:45.470Z,100414.00
2022-09-25T16:10:50.091Z,100423.00
2022-09-25T16:16:52.680Z,100422.00
2022-09-25T16:23:01.113Z,100414.00
2022-09-25T16:29:12.321Z,100406.00
2022-09-25T16:35:44.787Z,100409.00
2022-09-25T16:41:52.730Z,100410.00
2022-09-25T16:47:55.234Z,100401.00
2022-09-25T16:54:01.263Z,100396.00
2022-09-25T17:00:06.183Z,100391.00
2022-09-25T17:06:08.787Z,100387.00
2022-09-25T17:12:15.111Z,100380.00
2022-09-25T17:18:21.541Z,100384.00
2022-09-25T17:24:26.944Z,100380.00
2022-09-25T17:30:29.109Z,100386.00
2022-09-25T17:36:31.119Z,100388.00
2022-09-25T17:42:33.156Z,100381.00
2022-09-25T17:48:35.464Z,100391.00
2022-09-25T17:54:37.530Z,100380.00
2022-09-25T18:00:39.749Z,100399.00
2022-09-25T18:06:43.933Z,100391.00
2022-09-25T18:12:45.944Z,100379.00
2022-09-25T18:19:07.130Z,100385.00
2022-09-25T18:25:10.868Z,100378.00
2022-09-25T18:31:14.460Z,100374.00
2022-09-25T18:37:16.713Z,100376.00
2022-09-25T18:43:18.847Z,100388.00
2022-09-25T18:49:21.275Z,100395.00
2022-09-25T18:55:23.343Z,100396.00
2022-09-25T19:01:25.450Z,100377.00
2022-09-25T19:07:29.407Z,100376.00
2022-09-25T19:13:31.504Z,100389.00
2022-09-25T19:19:35.348Z,100391.00
2022-09-25T19:25:37.424Z,100399.00
2022-09-25T19:31:39.802Z,100397.00
2022-09-25T19:37:42.487Z,100405.00
2022-09-25T19:43:44.636Z,100390.00
2022-09-25T19:49:46.713Z,100401.00
2022-09-25T19:55:53.242Z,100405.00
2022-09-25T20:01:55.340Z,100390.00
2022-09-25T20:07:57.408Z,100390.00
2022-09-25T20:14:01.322Z,100388.00
2022-09-25T20:20:03.911Z,100391.00
2022-09-25T20:26:13.512Z,100402.00
2022-09-25T20:32:15.464Z,100390.00
2022-09-25T20:38:17.466Z,100388.00
2022-09-25T20:44:19.538Z,100387.00
2022-09-25T20:50:21.898Z,100381.00
2022-09-25T20:56:24.862Z,100382.00
2022-09-25T21:02:27.080Z,100377.00
2022-09-25T21:08:33.402Z,100376.00
2022-09-25T21:14:35.430Z,100366.00
2022-09-25T21:20:38.419Z,100371.00
2022-09-25T21:26:40.840Z,100356.00
2022-09-25T21:32:42.860Z,100352.00
2022-09-25T21:38:44.891Z,100347.00
2022-09-25T21:44:47.772Z,100343.00
2022-09-25T21:50:54.215Z,100325.00
2022-09-25T21:56:56.276Z,100322.00
2022-09-25T22:02:58.380Z,100333.00
2022-09-25T22:09:16.079Z,100330.00
2022-09-25T22:15:18.248Z,100331.00
2022-09-25T22:21:22.481Z,100317.00
2022-09-25T22:27:24.761Z,100317.00
2022-09-25T22:33:26.871Z,100314.00
2022-09-25T22:39:29.685Z,100323.00
2022-09-25T22:45:31.660Z,100320.00
2022-09-25T22:51:33.838Z,100309.00
2022-09-25T22:57:39.280Z,100299.00
2022-09-25T23:03:41.341Z,100294.00
2022-09-25T23:09:43.483Z,100288.00
2022-09-25T23:15:45.614Z,100276.00
2022-09-25T23:21:49.056Z,100280.00
2022-09-25T23:27:51.539Z,100282.00
2022-09-25T23:33:53.697Z,100275.00
2022-09-25T23:39:56.171Z,100275.00
2022-09-25T23:45:58.337Z,100270.00
2022-09-25T23:52:00.529Z,100263.00
2022-09-25T23:58:02.822Z,100256.00
